sensor_id;sensor_type;location;lat;lon;timestamp;P1;durP1;ratioP1;P2;durP2;ratioP2
66886;SDS011;67239;51.680;5.976;2023-04-28T00:02:02;9.57;;;5.85;;
66886;SDS011;67239;51.680;5.976;2023-04-28T00:04:29;8.57;;;5.35;;
66886;SDS011;67239;51.680;5.976;2023-04-28T00:06:57;9.75;;;5.25;;
66886;SDS011;67239;51.680;5.976;2023-04-28T00:09:24;8.32;;;5.78;;
66886;SDS011;67239;51.680;5.976;2023-04-28T00:11:51;7.47;;;5.60;;
66886;SDS011;67239;51.680;5.976;2023-04-28T00:14:18;8.52;;;6.00;;
66886;SDS011;67239;51.680;5.976;2023-04-28T00:16:45;10.15;;;5.80;;
66886;SDS011;67239;51.680;5.976;2023-04-28T00:19:12;9.50;;;6.45;;
66886;SDS011;67239;51.680;5.976;2023-04-28T00:21:39;9.40;;;5.60;;
66886;SDS011;67239;51.680;5.976;2023-04-28T00:24:06;10.40;;;5.82;;
66886;SDS011;67239;51.680;5.976;2023-04-28T00:26:33;12.38;;;5.97;;
66886;SDS011;67239;51.680;5.976;2023-04-28T00:29:00;11.07;;;6.05;;
66886;SDS011;67239;51.680;5.976;2023-04-28T00:31:27;10.75;;;5.90;;
66886;SDS011;67239;51.680;5.976;2023-04-28T00:33:54;11.05;;;5.80;;
66886;SDS011;67239;51.680;5.976;2023-04-28T00:36:21;9.65;;;6.10;;
66886;SDS011;67239;51.680;5.976;2023-04-28T00:38:48;10.68;;;6.25;;
66886;SDS011;67239;51.680;5.976;2023-04-28T00:41:16;11.00;;;6.20;;
66886;SDS011;67239;51.680;5.976;2023-04-28T00:43:45;12.38;;;6.25;;
66886;SDS011;67239;51.680;5.976;2023-04-28T00:46:21;10.15;;;5.75;;
66886;SDS011;67239;51.680;5.976;2023-04-28T00:48:54;8.02;;;5.57;;
66886;SDS011;67239;51.680;5.976;2023-04-28T00:51:23;9.68;;;5.63;;
66886;SDS011;67239;51.680;5.976;2023-04-28T00:53:50;10.32;;;6.68;;
66886;SDS011;67239;51.680;5.976;2023-04-28T00:56:17;12.38;;;6.80;;
66886;SDS011;67239;51.680;5.976;2023-04-28T00:58:45;10.25;;;6.45;;
66886;SDS011;67239;51.680;5.976;2023-04-28T01:01:12;11.18;;;6.70;;
66886;SDS011;67239;51.680;5.976;2023-04-28T01:03:39;13.48;;;6.55;;
66886;SDS011;67239;51.680;5.976;2023-04-28T01:06:07;10.35;;;6.65;;
66886;SDS011;67239;51.680;5.976;2023-04-28T01:08:37;10.63;;;6.47;;
66886;SDS011;67239;51.680;5.976;2023-04-28T01:11:11;11.05;;;6.68;;
66886;SDS011;67239;51.680;5.976;2023-04-28T01:13:59;10.25;;;5.82;;
66886;SDS011;67239;51.680;5.976;2023-04-28T01:16:29;9.68;;;6.43;;
66886;SDS011;67239;51.680;5.976;2023-04-28T01:18:58;10.60;;;6.88;;
66886;SDS011;67239;51.680;5.976;2023-04-28T01:21:27;10.27;;;6.55;;
66886;SDS011;67239;51.680;5.976;2023-04-28T01:24:02;12.80;;;7.18;;
66886;SDS011;67239;51.680;5.976;2023-04-28T01:26:32;9.82;;;6.70;;
66886;SDS011;67239;51.680;5.976;2023-04-28T01:29:00;11.38;;;6.57;;
66886;SDS011;67239;51.680;5.976;2023-04-28T01:31:27;9.30;;;6.25;;
66886;SDS011;67239;51.680;5.976;2023-04-28T01:33:56;14.07;;;6.97;;
66886;SDS011;67239;51.680;5.976;2023-04-28T01:36:24;10.05;;;6.90;;
66886;SDS011;67239;51.680;5.976;2023-04-28T01:38:53;9.98;;;6.72;;
66886;SDS011;67239;51.680;5.976;2023-04-28T01:41:20;12.13;;;7.20;;
66886;SDS011;67239;51.680;5.976;2023-04-28T01:43:48;11.80;;;6.97;;
66886;SDS011;67239;51.680;5.976;2023-04-28T01:46:15;10.98;;;6.85;;
66886;SDS011;67239;51.680;5.976;2023-04-28T01:48:42;14.82;;;6.93;;
66886;SDS011;67239;51.680;5.976;2023-04-28T01:51:09;8.65;;;6.80;;
66886;SDS011;67239;51.680;5.976;2023-04-28T01:53:37;12.70;;;7.28;;
66886;SDS011;67239;51.680;5.976;2023-04-28T01:56:04;9.45;;;7.13;;
66886;SDS011;67239;51.680;5.976;2023-04-28T01:58:33;11.32;;;7.60;;
66886;SDS011;67239;51.680;5.976;2023-04-28T02:01:00;11.13;;;7.65;;
66886;SDS011;67239;51.680;5.976;2023-04-28T02:03:29;12.20;;;7.70;;
66886;SDS011;67239;51.680;5.976;2023-04-28T02:05:57;12.77;;;8.30;;
66886;SDS011;67239;51.680;5.976;2023-04-28T02:08:24;15.38;;;8.80;;
66886;SDS011;67239;51.680;5.976;2023-04-28T02:10:51;14.85;;;8.77;;
66886;SDS011;67239;51.680;5.976;2023-04-28T02:13:20;12.32;;;8.50;;
66886;SDS011;67239;51.680;5.976;2023-04-28T02:15:47;14.32;;;8.43;;
66886;SDS011;67239;51.680;5.976;2023-04-28T02:18:14;12.57;;;8.32;;
66886;SDS011;67239;51.680;5.976;2023-04-28T02:20:41;11.68;;;8.52;;
66886;SDS011;67239;51.680;5.976;2023-04-28T02:23:08;15.30;;;9.20;;
66886;SDS011;67239;51.680;5.976;2023-04-28T02:25:36;13.98;;;8.98;;
66886;SDS011;67239;51.680;5.976;2023-04-28T02:28:03;14.05;;;9.15;;
66886;SDS011;67239;51.680;5.976;2023-04-28T02:30:33;13.75;;;9.32;;
66886;SDS011;67239;51.680;5.976;2023-04-28T02:33:00;14.68;;;9.18;;
66886;SDS011;67239;51.680;5.976;2023-04-28T02:35:27;13.82;;;9.93;;
66886;SDS011;67239;51.680;5.976;2023-04-28T02:37:54;15.85;;;9.82;;
66886;SDS011;67239;51.680;5.976;2023-04-28T02:40:21;15.00;;;9.20;;
66886;SDS011;67239;51.680;5.976;2023-04-28T02:42:48;12.73;;;9.38;;
66886;SDS011;67239;51.680;5.976;2023-04-28T02:45:15;16.27;;;10.27;;
66886;SDS011;67239;51.680;5.976;2023-04-28T02:47:42;14.05;;;9.68;;
66886;SDS011;67239;51.680;5.976;2023-04-28T02:50:09;14.70;;;9.45;;
66886;SDS011;67239;51.680;5.976;2023-04-28T02:52:37;15.45;;;9.02;;
66886;SDS011;67239;51.680;5.976;2023-04-28T02:55:04;13.82;;;9.45;;
66886;SDS011;67239;51.680;5.976;2023-04-28T02:57:32;13.60;;;9.07;;
66886;SDS011;67239;51.680;5.976;2023-04-28T02:59:59;15.88;;;10.05;;
66886;SDS011;67239;51.680;5.976;2023-04-28T03:02:31;15.88;;;9.95;;
66886;SDS011;67239;51.680;5.976;2023-04-28T03:04:58;14.70;;;9.20;;
66886;SDS011;67239;51.680;5.976;2023-04-28T03:07:25;14.15;;;9.85;;
66886;SDS011;67239;51.680;5.976;2023-04-28T03:09:52;16.70;;;10.20;;
66886;SDS011;67239;51.680;5.976;2023-04-28T03:12:19;14.82;;;9.38;;
66886;SDS011;67239;51.680;5.976;2023-04-28T03:14:47;13.82;;;9.90;;
66886;SDS011;67239;51.680;5.976;2023-04-28T03:17:15;13.75;;;9.77;;
66886;SDS011;67239;51.680;5.976;2023-04-28T03:19:42;15.57;;;9.73;;
66886;SDS011;67239;51.680;5.976;2023-04-28T03:22:09;13.60;;;9.90;;
66886;SDS011;67239;51.680;5.976;2023-04-28T03:24:36;14.10;;;9.13;;
66886;SDS011;67239;51.680;5.976;2023-04-28T03:27:03;14.27;;;9.82;;
66886;SDS011;67239;51.680;5.976;2023-04-28T03:29:31;14.70;;;9.38;;
66886;SDS011;67239;51.680;5.976;2023-04-28T03:31:58;12.73;;;9.63;;
66886;SDS011;67239;51.680;5.976;2023-04-28T03:34:26;17.10;;;10.70;;
66886;SDS011;67239;51.680;5.976;2023-04-28T03:36:53;15.70;;;10.38;;
66886;SDS011;67239;51.680;5.976;2023-04-28T03:39:26;16.33;;;10.55;;
66886;SDS011;67239;51.680;5.976;2023-04-28T03:41:53;14.90;;;10.20;;
66886;SDS011;67239;51.680;5.976;2023-04-28T03:44:39;16.88;;;10.40;;
66886;SDS011;67239;51.680;5.976;2023-04-28T03:47:07;18.17;;;11.07;;
66886;SDS011;67239;51.680;5.976;2023-04-28T03:49:35;16.13;;;11.75;;
66886;SDS011;67239;51.680;5.976;2023-04-28T03:52:02;17.30;;;11.77;;
66886;SDS011;67239;51.680;5.976;2023-04-28T03:54:30;15.70;;;11.73;;
66886;SDS011;67239;51.680;5.976;2023-04-28T03:56:58;18.35;;;11.70;;
66886;SDS011;67239;51.680;5.976;2023-04-28T03:59:26;20.70;;;12.13;;
66886;SDS011;67239;51.680;5.976;2023-04-28T04:01:53;19.90;;;12.95;;
66886;SDS011;67239;51.680;5.976;2023-04-28T04:04:20;21.23;;;12.90;;
66886;SDS011;67239;51.680;5.976;2023-04-28T04:06:48;18.45;;;12.90;;
66886;SDS011;67239;51.680;5.976;2023-04-28T04:09:15;18.83;;;12.88;;
66886;SDS011;67239;51.680;5.976;2023-04-28T04:11:42;21.27;;;13.93;;
66886;SDS011;67239;51.680;5.976;2023-04-28T04:14:09;19.48;;;13.82;;
66886;SDS011;67239;51.680;5.976;2023-04-28T04:16:36;23.15;;;15.52;;
66886;SDS011;67239;51.680;5.976;2023-04-28T04:19:04;21.45;;;14.18;;
66886;SDS011;67239;51.680;5.976;2023-04-28T04:21:52;21.17;;;14.35;;
66886;SDS011;67239;51.680;5.976;2023-04-28T04:24:19;27.73;;;14.98;;
66886;SDS011;67239;51.680;5.976;2023-04-28T04:26:47;22.55;;;14.30;;
66886;SDS011;67239;51.680;5.976;2023-04-28T04:29:46;23.25;;;15.50;;
66886;SDS011;67239;51.680;5.976;2023-04-28T04:32:14;25.48;;;15.93;;
66886;SDS011;67239;51.680;5.976;2023-04-28T04:34:41;22.10;;;15.27;;
66886;SDS011;67239;51.680;5.976;2023-04-28T04:37:09;22.77;;;16.20;;
66886;SDS011;67239;51.680;5.976;2023-04-28T04:39:44;23.60;;;15.68;;
66886;SDS011;67239;51.680;5.976;2023-04-28T04:42:11;23.25;;;15.52;;
66886;SDS011;67239;51.680;5.976;2023-04-28T04:45:11;22.65;;;16.35;;
66886;SDS011;67239;51.680;5.976;2023-04-28T04:47:39;25.25;;;16.15;;
66886;SDS011;67239;51.680;5.976;2023-04-28T04:50:07;22.05;;;15.68;;
66886;SDS011;67239;51.680;5.976;2023-04-28T04:52:38;24.42;;;15.88;;
66886;SDS011;67239;51.680;5.976;2023-04-28T04:55:05;25.27;;;15.65;;
66886;SDS011;67239;51.680;5.976;2023-04-28T04:57:33;23.95;;;16.92;;
66886;SDS011;67239;51.680;5.976;2023-04-28T05:00:07;24.25;;;16.23;;
66886;SDS011;67239;51.680;5.976;2023-04-28T05:02:36;23.00;;;16.52;;
66886;SDS011;67239;51.680;5.976;2023-04-28T05:05:04;21.10;;;15.75;;
66886;SDS011;67239;51.680;5.976;2023-04-28T05:07:50;21.95;;;15.63;;
66886;SDS011;67239;51.680;5.976;2023-04-28T05:10:20;23.48;;;16.92;;
66886;SDS011;67239;51.680;5.976;2023-04-28T05:12:47;21.38;;;15.50;;
66886;SDS011;67239;51.680;5.976;2023-04-28T05:15:16;22.23;;;15.65;;
66886;SDS011;67239;51.680;5.976;2023-04-28T05:17:58;20.98;;;15.95;;
66886;SDS011;67239;51.680;5.976;2023-04-28T05:20:26;22.48;;;15.23;;
66886;SDS011;67239;51.680;5.976;2023-04-28T05:22:54;23.05;;;14.88;;
66886;SDS011;67239;51.680;5.976;2023-04-28T05:25:21;26.38;;;16.02;;
66886;SDS011;67239;51.680;5.976;2023-04-28T05:27:49;24.80;;;15.68;;
66886;SDS011;67239;51.680;5.976;2023-04-28T05:30:16;24.02;;;15.52;;
66886;SDS011;67239;51.680;5.976;2023-04-28T05:32:44;22.58;;;16.02;;
66886;SDS011;67239;51.680;5.976;2023-04-28T05:35:11;21.88;;;15.55;;
66886;SDS011;67239;51.680;5.976;2023-04-28T05:37:39;23.10;;;16.38;;
66886;SDS011;67239;51.680;5.976;2023-04-28T05:40:09;20.85;;;15.27;;
66886;SDS011;67239;51.680;5.976;2023-04-28T05:42:36;21.55;;;15.15;;
66886;SDS011;67239;51.680;5.976;2023-04-28T05:45:04;22.90;;;15.30;;
66886;SDS011;67239;51.680;5.976;2023-04-28T05:47:32;20.85;;;14.50;;
66886;SDS011;67239;51.680;5.976;2023-04-28T05:50:00;18.08;;;14.00;;
66886;SDS011;67239;51.680;5.976;2023-04-28T05:52:27;21.58;;;13.38;;
66886;SDS011;67239;51.680;5.976;2023-04-28T05:54:55;22.30;;;14.57;;
66886;SDS011;67239;51.680;5.976;2023-04-28T05:57:22;22.77;;;13.95;;
66886;SDS011;67239;51.680;5.976;2023-04-28T05:59:49;20.33;;;12.90;;
66886;SDS011;67239;51.680;5.976;2023-04-28T06:02:16;19.95;;;13.50;;
66886;SDS011;67239;51.680;5.976;2023-04-28T06:04:46;17.77;;;13.30;;
66886;SDS011;67239;51.680;5.976;2023-04-28T06:07:14;19.30;;;13.40;;
66886;SDS011;67239;51.680;5.976;2023-04-28T06:09:41;19.17;;;12.82;;
66886;SDS011;67239;51.680;5.976;2023-04-28T06:12:08;19.77;;;13.45;;
66886;SDS011;67239;51.680;5.976;2023-04-28T06:14:35;19.30;;;13.13;;
66886;SDS011;67239;51.680;5.976;2023-04-28T06:17:03;18.90;;;12.75;;
66886;SDS011;67239;51.680;5.976;2023-04-28T06:19:30;16.05;;;11.50;;
66886;SDS011;67239;51.680;5.976;2023-04-28T06:21:57;15.82;;;10.95;;
66886;SDS011;67239;51.680;5.976;2023-04-28T06:24:25;16.73;;;11.18;;
66886;SDS011;67239;51.680;5.976;2023-04-28T06:26:54;14.63;;;10.70;;
66886;SDS011;67239;51.680;5.976;2023-04-28T06:29:21;17.20;;;10.88;;
66886;SDS011;67239;51.680;5.976;2023-04-28T06:31:50;14.43;;;10.25;;
66886;SDS011;67239;51.680;5.976;2023-04-28T06:34:18;14.75;;;10.82;;
66886;SDS011;67239;51.680;5.976;2023-04-28T06:36:45;15.57;;;10.55;;
66886;SDS011;67239;51.680;5.976;2023-04-28T06:39:12;14.63;;;10.20;;
66886;SDS011;67239;51.680;5.976;2023-04-28T06:41:39;15.43;;;10.77;;
66886;SDS011;67239;51.680;5.976;2023-04-28T06:44:08;13.38;;;10.05;;
66886;SDS011;67239;51.680;5.976;2023-04-28T06:46:37;15.50;;;10.15;;
66886;SDS011;67239;51.680;5.976;2023-04-28T06:49:04;14.50;;;9.95;;
66886;SDS011;67239;51.680;5.976;2023-04-28T06:51:31;14.02;;;9.45;;
66886;SDS011;67239;51.680;5.976;2023-04-28T06:54:00;16.15;;;10.18;;
66886;SDS011;67239;51.680;5.976;2023-04-28T06:56:27;14.30;;;9.55;;
66886;SDS011;67239;51.680;5.976;2023-04-28T06:58:55;16.65;;;10.18;;
66886;SDS011;67239;51.680;5.976;2023-04-28T07:01:25;16.80;;;9.40;;
66886;SDS011;67239;51.680;5.976;2023-04-28T07:03:52;15.23;;;9.52;;
66886;SDS011;67239;51.680;5.976;2023-04-28T07:06:20;15.60;;;9.70;;
66886;SDS011;67239;51.680;5.976;2023-04-28T07:08:47;18.48;;;10.60;;
66886;SDS011;67239;51.680;5.976;2023-04-28T07:11:14;13.00;;;9.73;;
66886;SDS011;67239;51.680;5.976;2023-04-28T07:13:42;12.57;;;9.63;;
66886;SDS011;67239;51.680;5.976;2023-04-28T07:16:12;13.98;;;9.38;;
66886;SDS011;67239;51.680;5.976;2023-04-28T07:18:41;14.70;;;9.38;;
66886;SDS011;67239;51.680;5.976;2023-04-28T07:21:08;13.63;;;9.32;;
66886;SDS011;67239;51.680;5.976;2023-04-28T07:23:36;16.65;;;9.43;;
66886;SDS011;67239;51.680;5.976;2023-04-28T07:26:12;14.35;;;8.60;;
66886;SDS011;67239;51.680;5.976;2023-04-28T07:28:45;15.32;;;9.10;;
66886;SDS011;67239;51.680;5.976;2023-04-28T07:31:16;14.43;;;8.70;;
66886;SDS011;67239;51.680;5.976;2023-04-28T07:33:44;14.48;;;8.98;;
66886;SDS011;67239;51.680;5.976;2023-04-28T07:36:14;13.40;;;8.35;;
66886;SDS011;67239;51.680;5.976;2023-04-28T07:38:42;16.05;;;9.07;;
66886;SDS011;67239;51.680;5.976;2023-04-28T07:41:10;15.00;;;8.48;;
66886;SDS011;67239;51.680;5.976;2023-04-28T07:43:38;17.23;;;9.02;;
66886;SDS011;67239;51.680;5.976;2023-04-28T07:46:07;13.80;;;8.68;;
66886;SDS011;67239;51.680;5.976;2023-04-28T07:48:34;18.17;;;8.93;;
66886;SDS011;67239;51.680;5.976;2023-04-28T07:51:01;13.30;;;8.70;;
66886;SDS011;67239;51.680;5.976;2023-04-28T07:53:28;10.90;;;8.32;;
66886;SDS011;67239;51.680;5.976;2023-04-28T07:55:55;12.30;;;9.05;;
66886;SDS011;67239;51.680;5.976;2023-04-28T07:58:23;12.55;;;8.30;;
66886;SDS011;67239;51.680;5.976;2023-04-28T08:00:50;13.18;;;8.77;;
66886;SDS011;67239;51.680;5.976;2023-04-28T08:03:17;12.85;;;8.88;;
66886;SDS011;67239;51.680;5.976;2023-04-28T08:05:44;14.52;;;8.73;;
66886;SDS011;67239;51.680;5.976;2023-04-28T08:08:12;13.85;;;8.57;;
66886;SDS011;67239;51.680;5.976;2023-04-28T08:10:38;14.30;;;8.50;;
66886;SDS011;67239;51.680;5.976;2023-04-28T08:13:07;11.45;;;7.95;;
66886;SDS011;67239;51.680;5.976;2023-04-28T08:15:34;13.40;;;9.32;;
66886;SDS011;67239;51.680;5.976;2023-04-28T08:18:02;15.65;;;9.43;;
66886;SDS011;67239;51.680;5.976;2023-04-28T08:20:29;11.57;;;8.45;;
66886;SDS011;67239;51.680;5.976;2023-04-28T08:22:58;10.73;;;8.50;;
66886;SDS011;67239;51.680;5.976;2023-04-28T08:25:25;14.02;;;9.10;;
66886;SDS011;67239;51.680;5.976;2023-04-28T08:27:52;20.85;;;8.93;;
66886;SDS011;67239;51.680;5.976;2023-04-28T08:30:23;11.05;;;7.93;;
66886;SDS011;67239;51.680;5.976;2023-04-28T08:32:50;11.23;;;7.90;;
66886;SDS011;67239;51.680;5.976;2023-04-28T08:35:17;9.70;;;7.50;;
66886;SDS011;67239;51.680;5.976;2023-04-28T08:37:44;10.40;;;7.70;;
66886;SDS011;67239;51.680;5.976;2023-04-28T08:40:14;9.63;;;7.78;;
66886;SDS011;67239;51.680;5.976;2023-04-28T08:42:41;9.95;;;8.15;;
66886;SDS011;67239;51.680;5.976;2023-04-28T08:45:12;12.73;;;8.52;;
66886;SDS011;67239;51.680;5.976;2023-04-28T08:47:41;10.82;;;8.55;;
66886;SDS011;67239;51.680;5.976;2023-04-28T08:50:13;14.60;;;10.07;;
66886;SDS011;67239;51.680;5.976;2023-04-28T08:52:42;13.80;;;10.30;;
66886;SDS011;67239;51.680;5.976;2023-04-28T08:55:09;12.60;;;9.18;;
66886;SDS011;67239;51.680;5.976;2023-04-28T08:57:48;10.05;;;9.00;;
66886;SDS011;67239;51.680;5.976;2023-04-28T09:00:19;12.55;;;9.55;;
66886;SDS011;67239;51.680;5.976;2023-04-28T09:02:46;18.25;;;10.32;;
66886;SDS011;67239;51.680;5.976;2023-04-28T09:05:14;15.38;;;9.88;;
66886;SDS011;67239;51.680;5.976;2023-04-28T09:07:44;14.88;;;9.73;;
66886;SDS011;67239;51.680;5.976;2023-04-28T09:10:21;18.55;;;9.18;;
66886;SDS011;67239;51.680;5.976;2023-04-28T09:12:51;12.57;;;10.05;;
66886;SDS011;67239;51.680;5.976;2023-04-28T09:15:30;15.85;;;10.57;;
66886;SDS011;67239;51.680;5.976;2023-04-28T09:18:07;15.98;;;10.55;;
66886;SDS011;67239;51.680;5.976;2023-04-28T09:20:35;16.20;;;10.63;;
66886;SDS011;67239;51.680;5.976;2023-04-28T09:23:15;15.15;;;10.52;;
66886;SDS011;67239;51.680;5.976;2023-04-28T09:26:01;14.45;;;11.18;;
66886;SDS011;67239;51.680;5.976;2023-04-28T09:28:29;17.27;;;11.05;;
66886;SDS011;67239;51.680;5.976;2023-04-28T09:31:00;15.65;;;10.77;;
66886;SDS011;67239;51.680;5.976;2023-04-28T09:33:27;19.58;;;11.05;;
66886;SDS011;67239;51.680;5.976;2023-04-28T09:35:55;17.92;;;10.48;;
66886;SDS011;67239;51.680;5.976;2023-04-28T09:38:22;16.27;;;10.57;;
66886;SDS011;67239;51.680;5.976;2023-04-28T09:46:03;15.82;;;10.13;;
66886;SDS011;67239;51.680;5.976;2023-04-28T09:48:36;12.88;;;9.85;;
66886;SDS011;67239;51.680;5.976;2023-04-28T09:51:05;13.57;;;10.20;;
66886;SDS011;67239;51.680;5.976;2023-04-28T09:53:33;12.38;;;10.50;;
66886;SDS011;67239;51.680;5.976;2023-04-28T09:56:02;14.27;;;10.65;;
66886;SDS011;67239;51.680;5.976;2023-04-28T09:58:33;15.00;;;10.25;;
66886;SDS011;67239;51.680;5.976;2023-04-28T10:01:06;14.68;;;10.40;;
66886;SDS011;67239;51.680;5.976;2023-04-28T10:03:39;15.23;;;11.13;;
66886;SDS011;67239;51.680;5.976;2023-04-28T10:06:08;18.17;;;11.73;;
66886;SDS011;67239;51.680;5.976;2023-04-28T10:08:36;15.63;;;11.25;;
66886;SDS011;67239;51.680;5.976;2023-04-28T10:11:03;12.48;;;10.00;;
66886;SDS011;67239;51.680;5.976;2023-04-28T10:13:31;15.55;;;10.25;;
66886;SDS011;67239;51.680;5.976;2023-04-28T10:16:00;12.77;;;9.75;;
66886;SDS011;67239;51.680;5.976;2023-04-28T10:18:29;11.85;;;9.35;;
66886;SDS011;67239;51.680;5.976;2023-04-28T10:21:00;10.50;;;8.93;;
66886;SDS011;67239;51.680;5.976;2023-04-28T10:29:34;11.80;;;8.68;;
66886;SDS011;67239;51.680;5.976;2023-04-28T10:32:13;10.93;;;8.63;;
66886;SDS011;67239;51.680;5.976;2023-04-28T10:34:41;10.70;;;8.88;;
66886;SDS011;67239;51.680;5.976;2023-04-28T10:37:08;10.15;;;8.88;;
66886;SDS011;67239;51.680;5.976;2023-04-28T10:39:36;11.32;;;8.80;;
66886;SDS011;67239;51.680;5.976;2023-04-28T10:42:04;12.20;;;9.18;;
66886;SDS011;67239;51.680;5.976;2023-04-28T10:45:14;9.93;;;8.93;;
66886;SDS011;67239;51.680;5.976;2023-04-28T10:56:30;9.75;;;8.48;;
66886;SDS011;67239;51.680;5.976;2023-04-28T10:58:58;12.15;;;9.25;;
66886;SDS011;67239;51.680;5.976;2023-04-28T11:01:26;9.90;;;8.00;;
66886;SDS011;67239;51.680;5.976;2023-04-28T11:03:58;12.52;;;9.18;;
66886;SDS011;67239;51.680;5.976;2023-04-28T11:06:37;13.98;;;8.90;;
66886;SDS011;67239;51.680;5.976;2023-04-28T11:14:32;10.75;;;8.77;;
66886;SDS011;67239;51.680;5.976;2023-04-28T11:17:05;10.98;;;8.95;;
66886;SDS011;67239;51.680;5.976;2023-04-28T11:19:41;12.23;;;9.20;;
66886;SDS011;67239;51.680;5.976;2023-04-28T11:22:14;12.40;;;9.30;;
66886;SDS011;67239;51.680;5.976;2023-04-28T11:24:55;11.18;;;8.98;;
66886;SDS011;67239;51.680;5.976;2023-04-28T11:27:23;15.45;;;10.52;;
66886;SDS011;67239;51.680;5.976;2023-04-28T11:29:57;19.47;;;12.17;;
66886;SDS011;67239;51.680;5.976;2023-04-28T11:32:32;18.40;;;13.07;;
66886;SDS011;67239;51.680;5.976;2023-04-28T11:35:00;18.33;;;13.32;;
66886;SDS011;67239;51.680;5.976;2023-04-28T11:37:30;19.67;;;13.90;;
66886;SDS011;67239;51.680;5.976;2023-04-28T11:39:56;18.45;;;14.75;;
66886;SDS011;67239;51.680;5.976;2023-04-28T11:42:24;25.45;;;15.77;;
66886;SDS011;67239;51.680;5.976;2023-04-28T11:44:53;24.70;;;17.00;;
66886;SDS011;67239;51.680;5.976;2023-04-28T11:47:28;20.60;;;16.33;;
66886;SDS011;67239;51.680;5.976;2023-04-28T11:49:58;20.20;;;15.95;;
66886;SDS011;67239;51.680;5.976;2023-04-28T11:52:25;22.38;;;17.10;;
66886;SDS011;67239;51.680;5.976;2023-04-28T11:54:53;24.63;;;17.48;;
66886;SDS011;67239;51.680;5.976;2023-04-28T11:57:24;23.45;;;16.88;;
66886;SDS011;67239;51.680;5.976;2023-04-28T11:59:52;22.45;;;17.20;;
66886;SDS011;67239;51.680;5.976;2023-04-28T12:02:25;22.38;;;17.58;;
66886;SDS011;67239;51.680;5.976;2023-04-28T12:04:55;24.58;;;18.75;;
66886;SDS011;67239;51.680;5.976;2023-04-28T12:07:38;20.58;;;17.95;;
66886;SDS011;67239;51.680;5.976;2023-04-28T12:10:10;23.20;;;18.40;;
66886;SDS011;67239;51.680;5.976;2023-04-28T12:12:38;24.15;;;18.13;;
66886;SDS011;67239;51.680;5.976;2023-04-28T12:15:17;23.27;;;17.95;;
66886;SDS011;67239;51.680;5.976;2023-04-28T12:18:08;21.08;;;17.23;;
66886;SDS011;67239;51.680;5.976;2023-04-28T12:20:42;25.50;;;19.23;;
66886;SDS011;67239;51.680;5.976;2023-04-28T12:23:09;23.42;;;18.83;;
66886;SDS011;67239;51.680;5.976;2023-04-28T12:25:43;22.23;;;18.90;;
66886;SDS011;67239;51.680;5.976;2023-04-28T12:28:11;27.60;;;19.52;;
66886;SDS011;67239;51.680;5.976;2023-04-28T12:30:38;21.42;;;17.80;;
66886;SDS011;67239;51.680;5.976;2023-04-28T12:33:21;25.73;;;19.38;;
66886;SDS011;67239;51.680;5.976;2023-04-28T12:35:50;23.05;;;18.70;;
66886;SDS011;67239;51.680;5.976;2023-04-28T12:38:20;22.05;;;16.85;;
66886;SDS011;67239;51.680;5.976;2023-04-28T12:40:47;25.27;;;17.38;;
66886;SDS011;67239;51.680;5.976;2023-04-28T12:43:14;22.92;;;18.15;;
66886;SDS011;67239;51.680;5.976;2023-04-28T12:45:41;22.35;;;18.75;;
66886;SDS011;67239;51.680;5.976;2023-04-28T12:48:08;20.02;;;17.23;;
66886;SDS011;67239;51.680;5.976;2023-04-28T12:50:36;25.65;;;19.05;;
66886;SDS011;67239;51.680;5.976;2023-04-28T12:53:03;23.92;;;18.27;;
66886;SDS011;67239;51.680;5.976;2023-04-28T12:55:30;25.58;;;18.90;;
66886;SDS011;67239;51.680;5.976;2023-04-28T12:57:57;23.50;;;17.38;;
66886;SDS011;67239;51.680;5.976;2023-04-28T13:00:25;23.42;;;16.13;;
66886;SDS011;67239;51.680;5.976;2023-04-28T13:02:52;28.25;;;18.48;;
66886;SDS011;67239;51.680;5.976;2023-04-28T13:05:19;21.60;;;18.25;;
66886;SDS011;67239;51.680;5.976;2023-04-28T13:07:46;21.90;;;17.73;;
66886;SDS011;67239;51.680;5.976;2023-04-28T13:10:15;20.55;;;16.42;;
66886;SDS011;67239;51.680;5.976;2023-04-28T13:12:43;24.35;;;18.00;;
66886;SDS011;67239;51.680;5.976;2023-04-28T13:15:10;20.27;;;16.77;;
66886;SDS011;67239;51.680;5.976;2023-04-28T13:17:38;21.73;;;16.35;;
66886;SDS011;67239;51.680;5.976;2023-04-28T13:20:05;20.73;;;15.77;;
66886;SDS011;67239;51.680;5.976;2023-04-28T13:22:33;19.30;;;15.52;;
66886;SDS011;67239;51.680;5.976;2023-04-28T13:25:00;20.52;;;16.67;;
66886;SDS011;67239;51.680;5.976;2023-04-28T13:27:27;22.38;;;16.58;;
66886;SDS011;67239;51.680;5.976;2023-04-28T13:29:56;19.38;;;16.00;;
66886;SDS011;67239;51.680;5.976;2023-04-28T13:32:26;21.30;;;16.25;;
66886;SDS011;67239;51.680;5.976;2023-04-28T13:34:53;15.90;;;13.10;;
66886;SDS011;67239;51.680;5.976;2023-04-28T13:37:21;10.90;;;8.60;;
66886;SDS011;67239;51.680;5.976;2023-04-28T13:39:48;7.22;;;6.07;;
66886;SDS011;67239;51.680;5.976;2023-04-28T13:42:15;6.32;;;5.30;;
66886;SDS011;67239;51.680;5.976;2023-04-28T13:44:42;5.72;;;4.55;;
66886;SDS011;67239;51.680;5.976;2023-04-28T13:47:10;6.80;;;5.45;;
66886;SDS011;67239;51.680;5.976;2023-04-28T13:49:38;6.00;;;4.75;;
66886;SDS011;67239;51.680;5.976;2023-04-28T13:52:05;6.55;;;5.55;;
66886;SDS011;67239;51.680;5.976;2023-04-28T13:54:32;9.25;;;6.82;;
66886;SDS011;67239;51.680;5.976;2023-04-28T13:57:00;9.88;;;7.03;;
66886;SDS011;67239;51.680;5.976;2023-04-28T13:59:27;8.98;;;7.43;;
66886;SDS011;67239;51.680;5.976;2023-04-28T14:01:54;10.40;;;8.60;;
66886;SDS011;67239;51.680;5.976;2023-04-28T14:04:21;12.15;;;7.95;;
66886;SDS011;67239;51.680;5.976;2023-04-28T14:06:49;10.23;;;7.95;;
66886;SDS011;67239;51.680;5.976;2023-04-28T14:09:16;10.80;;;8.10;;
66886;SDS011;67239;51.680;5.976;2023-04-28T14:11:43;10.15;;;7.68;;
66886;SDS011;67239;51.680;5.976;2023-04-28T14:14:10;10.85;;;7.70;;
66886;SDS011;67239;51.680;5.976;2023-04-28T14:16:37;8.90;;;6.80;;
66886;SDS011;67239;51.680;5.976;2023-04-28T14:19:04;8.25;;;6.68;;
66886;SDS011;67239;51.680;5.976;2023-04-28T14:21:33;9.23;;;6.97;;
66886;SDS011;67239;51.680;5.976;2023-04-28T14:24:00;8.05;;;6.35;;
66886;SDS011;67239;51.680;5.976;2023-04-28T14:26:28;9.55;;;5.50;;
66886;SDS011;67239;51.680;5.976;2023-04-28T14:28:55;6.78;;;5.00;;
66886;SDS011;67239;51.680;5.976;2023-04-28T14:31:22;6.45;;;5.20;;
66886;SDS011;67239;51.680;5.976;2023-04-28T14:33:49;5.35;;;4.53;;
66886;SDS011;67239;51.680;5.976;2023-04-28T14:36:16;5.28;;;4.78;;
66886;SDS011;67239;51.680;5.976;2023-04-28T14:38:43;4.70;;;4.22;;
66886;SDS011;67239;51.680;5.976;2023-04-28T14:41:10;4.90;;;4.43;;
66886;SDS011;67239;51.680;5.976;2023-04-28T14:43:38;5.47;;;4.22;;
66886;SDS011;67239;51.680;5.976;2023-04-28T14:46:05;4.95;;;4.00;;
66886;SDS011;67239;51.680;5.976;2023-04-28T14:48:33;5.00;;;3.80;;
66886;SDS011;67239;51.680;5.976;2023-04-28T14:51:00;4.63;;;4.10;;
66886;SDS011;67239;51.680;5.976;2023-04-28T14:53:28;4.47;;;4.00;;
66886;SDS011;67239;51.680;5.976;2023-04-28T14:55:56;5.00;;;4.05;;
66886;SDS011;67239;51.680;5.976;2023-04-28T14:58:44;5.50;;;4.45;;
66886;SDS011;67239;51.680;5.976;2023-04-28T15:01:11;5.13;;;4.45;;
66886;SDS011;67239;51.680;5.976;2023-04-28T15:03:39;7.82;;;4.53;;
66886;SDS011;67239;51.680;5.976;2023-04-28T15:06:06;6.82;;;4.40;;
66886;SDS011;67239;51.680;5.976;2023-04-28T15:08:33;5.32;;;4.63;;